Time;durP1;ratioP1;P1;durP2;ratioP2;P2;SDS_P1;SDS_P2;PMS_P1;PMS_P2;Temp;Humidity;BMP_temperature;BMP_pressure;BME280_temperature;BME280_humidity;BME280_pressure;Samples;Min_cycle;Max_cycle;Signal;HPM_P1;HPM_P2
2023/05/05 00:02:24;;;;;;;;;;;;;;;16.85;64.13;101430.94;5025578;28;19960;-52
2023/05/05 00:04:50;;;;;;;;;;;;;;;16.83;65.40;101430.91;5020565;28;19925;-53
2023/05/05 00:07:15;;;;;;;;;;;;;;;16.78;63.88;101430.00;5026165;28;20040;-52
2023/05/05 00:09:40;;;;;;;;;;;;;;;16.75;65.13;101442.09;5021699;28;19926;-52
2023/05/05 00:12:06;;;;;;;;;;;;;;;16.69;64.77;101442.84;5026687;28;20364;-52
2023/05/05 00:14:31;;;;;;;;;;;;;;;16.65;62.75;101446.25;5021946;28;20386;-53
2023/05/05 00:16:56;;;;;;;;;;;;;;;16.63;67.57;101446.25;5026126;28;20345;-53
2023/05/05 00:19:21;;;;;;;;;;;;;;;16.58;68.44;101439.25;5024668;28;19925;-51
2023/05/05 00:21:47;;;;;;;;;;;;;;;16.58;68.90;101445.31;5023658;28;20375;-52
2023/05/05 00:24:12;;;;;;;;;;;;;;;16.60;69.39;101443.59;5021929;28;20019;-53
2023/05/05 00:26:37;;;;;;;;;;;;;;;16.59;66.69;101449.63;5025484;28;19924;-53
2023/05/05 00:29:03;;;;;;;;;;;;;;;16.60;70.76;101447.91;5025097;28;20704;-52
2023/05/05 00:31:28;;;;;;;;;;;;;;;16.59;71.04;101447.03;5012810;28;19929;-53
2023/05/05 00:33:53;;;;;;;;;;;;;;;16.55;71.64;101459.97;5023551;28;19925;-52
2023/05/05 00:36:18;;;;;;;;;;;;;;;16.53;71.89;101457.34;5029614;28;20455;-53
2023/05/05 00:38:44;;;;;;;;;;;;;;;16.47;69.81;101457.28;5020867;28;19925;-53
2023/05/05 00:41:09;;;;;;;;;;;;;;;16.43;74.01;101465.00;5025255;28;20591;-53
2023/05/05 00:43:34;;;;;;;;;;;;;;;16.37;73.47;101455.41;5021626;28;19942;-53
2023/05/05 00:46:02;;;;;;;;;;;;;;;16.31;72.03;101450.13;5025049;28;19921;-52
2023/05/05 00:48:29;;;;;;;;;;;;;;;16.25;75.51;101450.03;5024411;28;19977;-52
2023/05/05 00:50:54;;;;;;;;;;;;;;;16.20;76.36;101454.28;5024671;28;19933;-53
2023/05/05 00:53:19;;;;;;;;;;;;;;;16.14;77.07;101451.59;5023750;28;19925;-53
2023/05/05 00:55:45;;;;;;;;;;;;;;;16.07;75.92;101455.81;5019863;28;19928;-53
2023/05/05 00:58:12;;;;;;;;;;;;;;;16.02;75.73;101460.97;5020381;28;20346;-53
2023/05/05 01:00:37;;;;;;;;;;;;;;;15.96;74.34;101466.06;5018961;28;19917;-52
2023/05/05 01:03:04;;;;;;;;;;;;;;;15.94;75.90;101459.09;5022899;28;19921;-53
2023/05/05 01:05:36;;;;;;;;;;;;;;;15.91;75.25;101469.44;5014914;28;19929;-52
2023/05/05 01:08:08;;;;;;;;;;;;;;;15.89;78.50;101466.78;5024317;28;20004;-53
2023/05/05 01:10:36;;;;;;;;;;;;;;;15.84;76.31;101465.00;5023063;28;20011;-55
2023/05/05 01:13:28;;;;;;;;;;;;;;;15.80;75.92;101472.72;5024745;28;20379;-53
2023/05/05 01:16:10;;;;;;;;;;;;;;;15.76;74.22;101464.84;5028429;28;19922;-53
2023/05/05 01:18:45;;;;;;;;;;;;;;;15.72;77.90;101470.84;5020895;28;19924;-52
2023/05/05 01:21:42;;;;;;;;;;;;;;;15.68;74.72;101474.22;5022525;28;19948;-54
2023/05/05 01:24:10;;;;;;;;;;;;;;;15.64;74.59;101481.06;5001326;28;19950;-52
2023/05/05 01:26:56;;;;;;;;;;;;;;;15.55;72.08;101486.94;5023548;28;19981;-53
2023/05/05 01:29:31;;;;;;;;;;;;;;;15.51;75.54;101484.25;5023408;28;19921;-52
2023/05/05 01:32:01;;;;;;;;;;;;;;;15.49;77.17;101478.19;5024757;28;20383;-51
2023/05/05 01:34:29;;;;;;;;;;;;;;;15.47;75.83;101470.41;5021691;28;19942;-52
2023/05/05 01:36:57;;;;;;;;;;;;;;;15.46;75.48;101454.81;5022282;28;19917;-52
2023/05/05 01:39:24;;;;;;;;;;;;;;;15.45;76.31;101448.75;5019594;28;19936;-52
2023/05/05 01:41:51;;;;;;;;;;;;;;;15.47;75.26;101452.25;5021594;28;20403;-49
2023/05/05 01:44:18;;;;;;;;;;;;;;;15.45;75.26;101448.75;5011803;27;19930;-53
2023/05/05 01:46:44;;;;;;;;;;;;;;;15.43;73.95;101449.59;5019386;28;20372;-51
2023/05/05 01:49:09;;;;;;;;;;;;;;;15.40;73.88;101460.75;5020659;28;19961;-52
2023/05/05 01:51:35;;;;;;;;;;;;;;;15.37;73.53;101468.47;5019810;28;19932;-52
2023/05/05 01:54:03;;;;;;;;;;;;;;;15.34;73.29;101480.50;5023136;28;19929;-53
2023/05/05 01:56:30;;;;;;;;;;;;;;;15.30;73.64;101482.19;5022462;28;20081;-51
2023/05/05 01:58:56;;;;;;;;;;;;;;;15.24;72.80;101462.22;5020233;28;19977;-52
2023/05/05 02:01:23;;;;;;;;;;;;;;;15.20;73.11;101462.97;5020596;28;20043;-53
2023/05/05 02:03:50;;;;;;;;;;;;;;;15.15;71.49;101459.44;5020680;28;19921;-52
2023/05/05 02:06:17;;;;;;;;;;;;;;;15.13;71.86;101465.44;5024265;28;20372;-52
2023/05/05 02:08:42;;;;;;;;;;;;;;;15.11;73.12;101467.13;5019785;28;20024;-55
2023/05/05 02:11:09;;;;;;;;;;;;;;;15.07;72.79;101475.69;5019407;28;19917;-53
2023/05/05 02:13:35;;;;;;;;;;;;;;;15.00;72.09;101472.97;5022104;28;19929;-54
2023/05/05 02:16:01;;;;;;;;;;;;;;;14.93;72.13;101475.41;5023613;28;19953;-52
2023/05/05 02:18:27;;;;;;;;;;;;;;;14.85;72.32;101469.19;5023103;28;19983;-55
2023/05/05 02:20:52;;;;;;;;;;;;;;;14.76;72.92;101469.88;5021419;28;20491;-53
2023/05/05 02:23:18;;;;;;;;;;;;;;;14.69;72.69;101476.66;5023806;28;20032;-52
2023/05/05 02:25:48;;;;;;;;;;;;;;;14.61;73.11;101479.91;5023751;28;19917;-53
2023/05/05 02:28:34;;;;;;;;;;;;;;;14.52;73.58;101474.56;5021960;28;19948;-52
2023/05/05 02:31:01;;;;;;;;;;;;;;;14.41;73.68;101488.09;5020560;28;19917;-51
2023/05/05 02:33:28;;;;;;;;;;;;;;;14.29;74.19;101481.75;5023146;28;19917;-51
2023/05/05 02:35:55;;;;;;;;;;;;;;;14.20;73.94;101490.19;5021259;28;20466;-46
2023/05/05 02:38:22;;;;;;;;;;;;;;;14.11;74.79;101487.38;5023970;28;19932;-44
2023/05/05 02:40:49;;;;;;;;;;;;;;;14.04;74.75;101480.31;5023838;28;19923;-45
2023/05/05 02:43:15;;;;;;;;;;;;;;;13.98;74.90;101493.97;5022102;28;19921;-46
2023/05/05 02:45:41;;;;;;;;;;;;;;;13.92;75.56;101496.41;5023827;28;19972;-44
2023/05/05 02:48:06;;;;;;;;;;;;;;;13.85;75.13;101504.88;5023878;28;19972;-46
2023/05/05 02:50:31;;;;;;;;;;;;;;;13.78;75.68;101509.00;5021438;28;20012;-46
2023/05/05 02:52:59;;;;;;;;;;;;;;;13.72;75.66;101513.16;5021011;28;19917;-44
2023/05/05 02:55:27;;;;;;;;;;;;;;;13.63;75.93;101509.47;5019847;28;19928;-45
2023/05/05 02:57:59;;;;;;;;;;;;;;;13.58;76.23;101521.41;5023026;28;19965;-44
2023/05/05 03:00:37;;;;;;;;;;;;;;;13.50;77.76;101510.00;5024344;28;19949;-45
2023/05/05 03:03:05;;;;;;;;;;;;;;;13.46;76.79;101505.56;5021279;28;20379;-45
2023/05/05 03:05:37;;;;;;;;;;;;;;;13.40;77.35;101506.28;5021651;28;19925;-45
2023/05/05 03:08:08;;;;;;;;;;;;;;;13.36;76.72;101506.19;5022824;28;19943;-45
2023/05/05 03:10:35;;;;;;;;;;;;;;;13.26;77.83;101497.28;5013561;28;19925;-46
2023/05/05 03:13:01;;;;;;;;;;;;;;;13.21;77.76;101500.59;5023255;28;20143;-45
2023/05/05 03:15:37;;;;;;;;;;;;;;;13.16;77.89;101495.25;5022660;28;19917;-47
2023/05/05 03:18:03;;;;;;;;;;;;;;;13.11;78.38;101502.03;5020897;28;19928;-45
2023/05/05 03:20:29;;;;;;;;;;;;;;;13.05;78.28;101501.84;5022296;28;19925;-46
2023/05/05 03:22:54;;;;;;;;;;;;;;;13.00;79.10;101508.59;5023868;28;19929;-46
2023/05/05 03:25:19;;;;;;;;;;;;;;;12.96;80.66;101506.75;5019036;28;20016;-45
2023/05/05 03:27:45;;;;;;;;;;;;;;;12.92;79.94;101510.06;5024447;28;20032;-45
2023/05/05 03:30:10;;;;;;;;;;;;;;;12.87;80.01;101510.81;5025722;28;19925;-46
2023/05/05 03:32:36;;;;;;;;;;;;;;;12.82;80.70;101514.09;5026622;28;20368;-47
2023/05/05 03:35:01;;;;;;;;;;;;;;;12.79;80.89;101521.72;5026868;28;19921;-46
2023/05/05 03:37:26;;;;;;;;;;;;;;;12.76;83.16;101524.22;5024896;28;19921;-48
2023/05/05 03:39:52;;;;;;;;;;;;;;;12.72;81.73;101512.94;5026841;28;19921;-46
2023/05/05 03:42:17;;;;;;;;;;;;;;;12.67;81.92;101521.38;5024884;28;19933;-45
2023/05/05 03:44:42;;;;;;;;;;;;;;;12.63;84.24;101522.13;5025947;28;19921;-45
2023/05/05 03:47:07;;;;;;;;;;;;;;;12.61;83.96;101519.47;5024922;28;19921;-51
2023/05/05 03:49:33;;;;;;;;;;;;;;;12.60;82.89;101522.88;5025275;28;19921;-47
2023/05/05 03:51:58;;;;;;;;;;;;;;;12.59;84.12;101526.31;5021106;28;19925;-46
2023/05/05 03:54:23;;;;;;;;;;;;;;;12.58;85.16;101527.13;5022590;28;19980;-46
2023/05/05 03:56:48;;;;;;;;;;;;;;;12.56;84.92;101536.53;5110401;27;19921;-47
2023/05/05 03:59:14;;;;;;;;;;;;;;;12.57;84.46;101533.13;5025810;28;19933;-47
2023/05/05 04:01:40;;;;;;;;;;;;;;;12.57;83.41;101531.44;5025749;28;19921;-45
2023/05/05 04:04:05;;;;;;;;;;;;;;;12.57;84.17;101543.44;5021901;28;19921;-47
2023/05/05 04:06:32;;;;;;;;;;;;;;;12.53;84.51;101544.19;5024512;28;21158;-47
2023/05/05 04:08:57;;;;;;;;;;;;;;;12.49;84.94;101544.91;5024100;28;19925;-46
2023/05/05 04:11:23;;;;;;;;;;;;;;;12.47;85.02;101551.72;5022644;28;20364;-47
2023/05/05 04:13:48;;;;;;;;;;;;;;;12.45;86.81;101554.25;5021816;28;19997;-45
2023/05/05 04:16:14;;;;;;;;;;;;;;;12.43;84.75;101557.59;5023338;28;19921;-48
2023/05/05 04:18:39;;;;;;;;;;;;;;;12.43;87.24;101555.91;5024721;28;19929;-48
2023/05/05 04:21:04;;;;;;;;;;;;;;;12.45;87.11;101553.38;5026036;28;19921;-45
2023/05/05 04:23:30;;;;;;;;;;;;;;;12.46;88.59;101552.56;5021605;28;19929;-45
2023/05/05 04:25:55;;;;;;;;;;;;;;;12.47;86.49;101562.91;5024495;28;19922;-45
2023/05/05 04:28:21;;;;;;;;;;;;;;;12.50;85.47;101563.03;5021606;28;20375;-46
2023/05/05 04:30:46;;;;;;;;;;;;;;;12.51;87.13;101563.91;5022417;28;19925;-45
2023/05/05 04:33:11;;;;;;;;;;;;;;;12.53;86.81;101555.38;5019768;28;19975;-46
2023/05/05 04:35:37;;;;;;;;;;;;;;;12.54;84.30;101563.97;5024124;28;19980;-46
2023/05/05 04:38:02;;;;;;;;;;;;;;;12.56;86.22;101570.09;5025122;28;20000;-49
2023/05/05 04:40:27;;;;;;;;;;;;;;;12.58;86.99;101571.88;5024692;28;19923;-53
2023/05/05 04:42:53;;;;;;;;;;;;;;;12.62;87.20;101580.59;5023090;28;20542;-53
2023/05/05 04:45:18;;;;;;;;;;;;;;;12.65;86.70;101565.19;5025526;28;19921;-53
2023/05/05 04:47:43;;;;;;;;;;;;;;;12.67;87.65;101563.53;5022219;28;19940;-52
2023/05/05 04:50:10;;;;;;;;;;;;;;;12.70;88.51;101563.63;5025416;28;19952;-53
2023/05/05 04:52:35;;;;;;;;;;;;;;;12.74;87.91;101572.31;5023023;28;19925;-52
2023/05/05 04:55:00;;;;;;;;;;;;;;;12.77;87.42;101567.28;5023276;28;20048;-52
2023/05/05 04:57:26;;;;;;;;;;;;;;;12.76;85.10;101571.56;5023220;28;19952;-52
2023/05/05 04:59:51;;;;;;;;;;;;;;;12.79;87.05;101569.06;5024676;28;20383;-51
2023/05/05 05:02:17;;;;;;;;;;;;;;;12.81;85.15;101571.72;5024466;28;19933;-51
2023/05/05 05:04:42;;;;;;;;;;;;;;;12.85;85.96;101564.06;5024386;28;19946;-53
2023/05/05 05:07:08;;;;;;;;;;;;;;;12.95;86.71;101566.94;5025880;28;19929;-53
2023/05/05 05:09:33;;;;;;;;;;;;;;;13.20;85.59;101561.66;5024477;28;20000;-53
2023/05/05 05:11:59;;;;;;;;;;;;;;;13.53;86.70;101564.34;5024818;28;20289;-53
2023/05/05 05:14:26;;;;;;;;;;;;;;;13.98;82.96;101553.44;5022999;28;19956;-53
2023/05/05 05:16:52;;;;;;;;;;;;;;;14.52;82.61;101549.59;5022807;28;19921;-52
2023/05/05 05:19:17;;;;;;;;;;;;;;;14.93;80.86;101548.78;5025615;28;19940;-52
2023/05/05 05:21:42;;;;;;;;;;;;;;;15.31;79.66;101555.59;5019594;28;19921;-53
2023/05/05 05:24:09;;;;;;;;;;;;;;;15.71;77.35;101555.53;5024205;28;19921;-54
2023/05/05 05:26:34;;;;;;;;;;;;;;;16.21;76.14;101558.13;5021279;28;19925;-53
2023/05/05 05:29:00;;;;;;;;;;;;;;;16.73;74.64;101555.44;5024915;28;20935;-54
2023/05/05 05:31:25;;;;;;;;;;;;;;;17.47;72.14;101550.28;5019357;28;19998;-54
2023/05/05 05:33:50;;;;;;;;;;;;;;;18.26;68.66;101554.50;5023798;28;19972;-53
2023/05/05 05:36:15;;;;;;;;;;;;;;;18.75;67.24;101551.41;5023595;28;19928;-53
2023/05/05 05:38:40;;;;;;;;;;;;;;;19.22;65.72;101557.66;5024446;28;20389;-54
2023/05/05 05:41:06;;;;;;;;;;;;;;;19.62;65.11;101555.22;5018740;28;19972;-53
2023/05/05 05:43:32;;;;;;;;;;;;;;;19.99;63.90;101562.22;5024275;28;19921;-54
2023/05/05 05:45:57;;;;;;;;;;;;;;;20.38;63.52;101560.44;5024786;28;19937;-46
2023/05/05 05:48:27;;;;;;;;;;;;;;;20.62;61.60;101567.41;5022468;28;19932;-48
2023/05/05 05:50:52;;;;;;;;;;;;;;;20.87;60.96;101570.84;5021877;28;20358;-46
2023/05/05 05:53:17;;;;;;;;;;;;;;;21.13;61.32;101575.97;5024270;28;19996;-46
2023/05/05 05:55:44;;;;;;;;;;;;;;;21.15;60.76;101580.31;5023631;28;19928;-45
2023/05/05 05:58:09;;;;;;;;;;;;;;;21.00;59.65;101595.22;5024157;28;20299;-46
2023/05/05 06:00:35;;;;;;;;;;;;;;;20.88;61.21;101603.94;5023929;28;19925;-45
2023/05/05 06:03:00;;;;;;;;;;;;;;;20.67;60.58;101602.25;5021469;28;20414;-46
2023/05/05 06:05:25;;;;;;;;;;;;;;;20.53;61.29;101611.84;5019740;28;19957;-49
2023/05/05 06:07:51;;;;;;;;;;;;;;;20.23;61.85;101613.56;5022433;28;19984;-45
2023/05/05 06:10:16;;;;;;;;;;;;;;;20.01;63.21;101615.28;5021331;28;19921;-46
2023/05/05 06:12:41;;;;;;;;;;;;;;;19.95;62.51;101615.28;5020278;28;20387;-46
2023/05/05 06:15:07;;;;;;;;;;;;;;;19.96;63.04;101619.66;5024155;28;19968;-46
2023/05/05 06:17:32;;;;;;;;;;;;;;;20.11;62.97;101620.53;5019698;28;19925;-44
2023/05/05 06:19:57;;;;;;;;;;;;;;;20.22;62.90;101614.44;5039634;28;19921;-44
2023/05/05 06:22:22;;;;;;;;;;;;;;;19.89;63.09;101617.00;5021913;28;20398;-45
2023/05/05 06:24:48;;;;;;;;;;;;;;;19.85;63.01;101628.34;5021866;28;19929;-45
2023/05/05 06:27:13;;;;;;;;;;;;;;;19.89;63.80;101628.31;5023913;28;19970;-46
2023/05/05 06:29:39;;;;;;;;;;;;;;;20.09;63.51;101630.97;5020973;28;19922;-44
2023/05/05 06:32:07;;;;;;;;;;;;;;;20.42;62.88;101635.34;5022219;28;20015;-44
2023/05/05 06:34:32;;;;;;;;;;;;;;;20.69;61.09;101630.97;5019566;28;19921;-45
2023/05/05 06:36:57;;;;;;;;;;;;;;;20.67;61.46;101636.22;5022517;28;19921;-45
2023/05/05 06:39:22;;;;;;;;;;;;;;;20.55;61.88;101631.00;5019833;28;19980;-48
2023/05/05 06:41:48;;;;;;;;;;;;;;;20.70;62.17;101638.84;5014349;28;19924;-46
2023/05/05 06:44:13;;;;;;;;;;;;;;;20.73;61.63;101627.50;5021716;28;19921;-44
2023/05/05 06:46:38;;;;;;;;;;;;;;;20.76;60.78;101632.72;5022036;28;19921;-45
2023/05/05 06:49:03;;;;;;;;;;;;;;;20.69;61.11;101638.81;5023764;28;19921;-45
2023/05/05 06:51:29;;;;;;;;;;;;;;;20.70;61.00;101640.59;5021717;28;19995;-45
2023/05/05 06:53:54;;;;;;;;;;;;;;;20.70;60.65;101644.06;5020886;28;19917;-45
2023/05/05 06:56:19;;;;;;;;;;;;;;;20.53;62.13;101640.59;5022360;28;19972;-45
2023/05/05 06:58:45;;;;;;;;;;;;;;;20.74;61.16;101635.31;5022280;28;19921;-49
2023/05/05 07:01:10;;;;;;;;;;;;;;;20.51;61.40;101639.72;5025242;28;19929;-46
2023/05/05 07:03:36;;;;;;;;;;;;;;;20.44;61.13;101636.19;5022994;28;20301;-46
2023/05/05 07:06:01;;;;;;;;;;;;;;;20.29;61.31;101644.91;5015424;28;20009;-49
2023/05/05 07:08:26;;;;;;;;;;;;;;;20.05;61.83;101644.88;5025716;28;19921;-49
2023/05/05 07:10:51;;;;;;;;;;;;;;;20.18;62.48;101644.03;5022160;28;20651;-49
2023/05/05 07:13:16;;;;;;;;;;;;;;;20.54;61.62;101642.31;5026704;28;20007;-49
2023/05/05 07:15:45;;;;;;;;;;;;;;;20.80;60.80;101653.59;5023429;28;20058;-47
2023/05/05 07:18:15;;;;;;;;;;;;;;;20.95;58.65;101646.63;5026781;28;19924;-46
2023/05/05 07:20:40;;;;;;;;;;;;;;;20.81;60.35;101651.88;5024129;28;20342;-47
2023/05/05 07:23:06;;;;;;;;;;;;;;;20.84;60.11;101657.09;5026642;28;20374;-49
2023/05/05 07:25:31;;;;;;;;;;;;;;;21.08;59.94;101653.56;5024306;28;19977;-47
2023/05/05 07:27:57;;;;;;;;;;;;;;;21.17;57.15;101653.53;5026236;28;20403;-48
2023/05/05 07:30:24;;;;;;;;;;;;;;;20.99;58.49;101653.56;5024975;28;19921;-47
2023/05/05 07:32:50;;;;;;;;;;;;;;;21.07;59.19;101655.31;5026221;28;19936;-50
2023/05/05 07:35:15;;;;;;;;;;;;;;;21.34;58.42;101653.50;5026916;28;19917;-48
2023/05/05 07:37:40;;;;;;;;;;;;;;;21.66;57.53;101650.75;5025604;28;19936;-46
2023/05/05 07:40:06;;;;;;;;;;;;;;;21.78;56.55;101649.78;5026061;28;19921;-48
2023/05/05 07:42:31;;;;;;;;;;;;;;;21.95;55.69;101653.19;5025656;28;19933;-47
2023/05/05 07:44:57;;;;;;;;;;;;;;;21.92;56.11;101643.63;5025464;28;19925;-47
2023/05/05 07:47:22;;;;;;;;;;;;;;;21.56;56.57;101641.22;5023645;28;20426;-48
2023/05/05 07:49:47;;;;;;;;;;;;;;;21.39;56.68;101642.16;5025002;28;20387;-49
2023/05/05 07:52:12;;;;;;;;;;;;;;;21.43;57.10;101632.56;5024261;28;19930;-47
2023/05/05 07:54:38;;;;;;;;;;;;;;;21.49;56.61;101629.91;5042549;28;20429;-46
2023/05/05 07:57:03;;;;;;;;;;;;;;;21.35;56.75;101634.31;5023618;28;20437;-45
2023/05/05 07:59:28;;;;;;;;;;;;;;;21.14;56.79;101637.84;5023839;28;19947;-48
2023/05/05 08:01:53;;;;;;;;;;;;;;;21.06;56.81;101637.03;5025333;28;19925;-48
2023/05/05 08:04:19;;;;;;;;;;;;;;;21.22;57.05;101643.06;5026532;28;19921;-46
2023/05/05 08:06:44;;;;;;;;;;;;;;;21.29;55.90;101629.97;5021626;28;19925;-48
2023/05/05 08:09:09;;;;;;;;;;;;;;;21.28;56.78;101630.81;5024114;28;19921;-46
2023/05/05 08:11:34;;;;;;;;;;;;;;;21.42;55.44;101628.19;5024129;28;19921;-47
2023/05/05 08:14:00;;;;;;;;;;;;;;;21.41;55.99;101626.44;5023588;28;19925;-47
2023/05/05 08:16:25;;;;;;;;;;;;;;;21.19;56.37;101638.72;5024341;28;20036;-48
2023/05/05 08:18:50;;;;;;;;;;;;;;;21.18;56.63;101647.44;5021866;28;20141;-46
2023/05/05 08:21:17;;;;;;;;;;;;;;;21.30;56.18;101651.78;5024890;28;20004;-46
2023/05/05 08:23:42;;;;;;;;;;;;;;;21.51;56.06;101642.97;5021020;28;20391;-50
2023/05/05 08:26:11;;;;;;;;;;;;;;;21.62;56.32;101649.91;5025124;28;19928;-49
2023/05/05 08:28:36;;;;;;;;;;;;;;;21.78;55.84;101650.69;5023846;28;19927;-47
2023/05/05 08:31:02;;;;;;;;;;;;;;;21.73;55.49;101639.38;5022752;28;19929;-49
2023/05/05 08:33:27;;;;;;;;;;;;;;;21.65;55.67;101643.75;5021797;28;19921;-50
2023/05/05 08:35:53;;;;;;;;;;;;;;;21.72;55.74;101653.34;5024652;28;20074;-45
2023/05/05 08:38:18;;;;;;;;;;;;;;;21.78;56.07;101647.19;5019736;28;19964;-44
2023/05/05 08:40:43;;;;;;;;;;;;;;;21.74;54.93;101650.72;5023340;28;19921;-46
2023/05/05 08:43:09;;;;;;;;;;;;;;;21.61;55.33;101644.69;5023382;28;19924;-48
2023/05/05 08:45:35;;;;;;;;;;;;;;;21.40;55.02;101648.25;5023238;28;19917;-50
2023/05/05 08:48:01;;;;;;;;;;;;;;;21.16;55.78;101654.41;5024037;28;20402;-45
2023/05/05 08:50:28;;;;;;;;;;;;;;;21.07;56.17;101654.44;5026387;28;19982;-46
2023/05/05 08:52:59;;;;;;;;;;;;;;;20.95;56.57;101654.47;5027689;28;19928;-49
2023/05/05 08:55:27;;;;;;;;;;;;;;;20.79;56.35;101656.22;5022367;28;19921;-45
2023/05/05 08:57:56;;;;;;;;;;;;;;;20.69;56.54;101655.41;5024979;28;19924;-45
2023/05/05 09:00:21;;;;;;;;;;;;;;;20.51;57.23;101656.28;5024433;28;20065;-48
2023/05/05 09:02:47;;;;;;;;;;;;;;;20.47;57.57;101658.88;5024167;28;20016;-46
2023/05/05 09:05:12;;;;;;;;;;;;;;;20.46;57.25;101657.16;5020188;28;19929;-44
2023/05/05 09:07:40;;;;;;;;;;;;;;;20.42;56.90;101647.53;5023739;28;20552;-47
2023/05/05 09:10:06;;;;;;;;;;;;;;;20.34;57.44;101640.56;5022328;28;19931;-44
2023/05/05 09:12:32;;;;;;;;;;;;;;;20.35;57.60;101641.44;5022174;28;19921;-47
2023/05/05 09:14:57;;;;;;;;;;;;;;;20.35;57.17;101647.53;5019773;28;19932;-46
2023/05/05 09:17:24;;;;;;;;;;;;;;;20.24;57.52;101649.25;5008081;28;19929;-48
2023/05/05 09:20:00;;;;;;;;;;;;;;;20.17;58.47;101649.25;5022589;28;19982;-44
2023/05/05 09:22:32;;;;;;;;;;;;;;;20.35;58.26;101647.53;5024892;28;20038;-45
2023/05/05 09:24:57;;;;;;;;;;;;;;;20.50;57.33;101653.63;5024220;28;19917;-46
2023/05/05 09:27:23;;;;;;;;;;;;;;;20.55;58.09;101660.59;5020087;28;20032;-49
2023/05/05 09:29:49;;;;;;;;;;;;;;;20.68;57.79;101666.69;5011557;28;19921;-45
2023/05/05 09:32:15;;;;;;;;;;;;;;;20.77;57.07;101669.31;5023798;28;19925;-45
2023/05/05 09:34:40;;;;;;;;;;;;;;;20.85;56.79;101666.69;5025982;28;20388;-45
2023/05/05 09:37:05;;;;;;;;;;;;;;;20.94;56.82;101665.81;5024617;28;20345;-47
2023/05/05 09:39:30;;;;;;;;;;;;;;;20.88;54.77;101669.31;5020081;28;19932;-47
2023/05/05 09:41:57;;;;;;;;;;;;;;;20.70;55.46;101670.19;5018356;28;19927;-45
2023/05/05 09:44:35;;;;;;;;;;;;;;;20.60;56.46;101665.84;5024642;28;19929;-46
2023/05/05 09:47:01;;;;;;;;;;;;;;;20.61;56.82;101664.97;5013534;28;20303;-46
2023/05/05 09:49:26;;;;;;;;;;;;;;;20.67;56.55;101657.13;5025704;28;19921;-46
2023/05/05 09:51:52;;;;;;;;;;;;;;;20.68;56.42;101652.75;5025384;28;19936;-47
2023/05/05 09:54:28;;;;;;;;;;;;;;;20.73;55.96;101653.63;5024666;28;19933;-47
2023/05/05 09:56:54;;;;;;;;;;;;;;;20.75;55.85;101655.38;5024739;28;19921;-48
2023/05/05 09:59:19;;;;;;;;;;;;;;;20.70;55.57;101654.53;5024700;28;19925;-47
2023/05/05 10:01:45;;;;;;;;;;;;;;;20.75;56.25;101652.78;5020330;28;20008;-45
2023/05/05 10:04:27;;;;;;;;;;;;;;;20.84;56.02;101650.13;5034775;28;20039;-48
2023/05/05 10:06:53;;;;;;;;;;;;;;;20.89;54.65;101651.00;5025103;28;19980;-49
2023/05/05 10:09:19;;;;;;;;;;;;;;;20.84;54.68;101650.13;5025868;28;19939;-50
2023/05/05 10:11:46;;;;;;;;;;;;;;;20.83;54.44;101647.53;5026227;28;20411;-52
2023/05/05 10:14:14;;;;;;;;;;;;;;;20.82;55.76;101651.03;5018736;28;19923;-50
2023/05/05 10:16:59;;;;;;;;;;;;;;;20.69;56.94;101657.09;5024701;28;19929;-52
2023/05/05 10:19:27;;;;;;;;;;;;;;;20.56;57.51;101646.66;5024658;28;19960;-53
2023/05/05 10:21:53;;;;;;;;;;;;;;;20.43;58.93;101649.25;5024492;28;19921;-50
2023/05/05 10:24:29;;;;;;;;;;;;;;;20.18;61.78;101651.84;5027351;28;19925;-49
2023/05/05 10:26:56;;;;;;;;;;;;;;;19.93;64.62;101657.91;5026528;28;19924;-50
2023/05/05 10:29:29;;;;;;;;;;;;;;;19.60;64.58;101659.59;5024656;28;19920;-49
2023/05/05 10:31:57;;;;;;;;;;;;;;;19.38;68.26;101668.13;5009545;28;19920;-56
2023/05/05 10:34:25;;;;;;;;;;;;;;;19.22;66.17;101662.84;5022994;28;20338;-51
2023/05/05 10:36:52;;;;;;;;;;;;;;;18.98;66.45;101662.69;5023702;28;19917;-51
2023/05/05 10:39:18;;;;;;;;;;;;;;;18.73;70.87;101669.47;5024387;28;19947;-55
2023/05/05 10:41:46;;;;;;;;;;;;;;;18.52;73.24;101672.78;5025079;28;20390;-54
2023/05/05 10:44:12;;;;;;;;;;;;;;;18.27;69.30;101676.03;5024290;28;19905;-53
2023/05/05 10:46:38;;;;;;;;;;;;;;;18.07;73.38;101675.81;5010931;28;19996;-55
2023/05/05 10:49:08;;;;;;;;;;;;;;;17.90;76.09;101686.94;5025317;28;19936;-52
2023/05/05 10:51:43;;;;;;;;;;;;;;;17.77;74.87;101690.22;5024374;28;19963;-49
2023/05/05 10:54:12;;;;;;;;;;;;;;;17.66;77.31;101690.09;5024266;28;20427;-52
2023/05/05 10:56:39;;;;;;;;;;;;;;;17.60;78.65;101692.63;5019184;28;19925;-52
2023/05/05 10:59:23;;;;;;;;;;;;;;;17.55;83.44;101698.59;5022474;28;19943;-50
2023/05/05 11:01:50;;;;;;;;;;;;;;;17.46;86.85;101698.47;5019816;28;19917;-47
2023/05/05 11:04:19;;;;;;;;;;;;;;;17.35;85.60;101695.72;5023641;28;19921;-46
2023/05/05 11:07:24;;;;;;;;;;;;;;;17.16;82.99;101698.06;5021932;28;19947;-47
2023/05/05 11:09:56;;;;;;;;;;;;;;;16.91;82.43;101703.75;4992123;28;19926;-48
2023/05/05 11:12:21;;;;;;;;;;;;;;;16.30;87.44;101700.13;4974453;28;20397;-49
2023/05/05 11:14:47;;;;;;;;;;;;;;;15.65;87.74;101704.91;4998686;28;19917;-46
2023/05/05 11:17:31;;;;;;;;;;;;;;;15.08;90.80;101701.06;5024061;28;19961;-49
2023/05/05 11:19:56;;;;;;;;;;;;;;;14.55;94.51;101712.69;5023483;28;19921;-48
2023/05/05 11:22:21;;;;;;;;;;;;;;;14.29;94.54;101714.59;5022423;28;19959;-47
2023/05/05 11:24:46;;;;;;;;;;;;;;;14.14;98.39;101707.31;5023959;28;19927;-45
2023/05/05 11:27:12;;;;;;;;;;;;;;;13.95;99.02;101711.97;5023702;28;19932;-44
2023/05/05 11:29:56;;;;;;;;;;;;;;;13.85;92.33;101702.22;5023082;28;19921;-47
2023/05/05 11:32:21;;;;;;;;;;;;;;;13.72;99.56;101704.41;5021368;28;19938;-49
2023/05/05 11:34:47;;;;;;;;;;;;;;;13.63;100.00;101712.75;5024242;28;19921;-46
2023/05/05 11:37:13;;;;;;;;;;;;;;;13.52;100.00;101709.84;5011565;28;20363;-47
2023/05/05 11:39:58;;;;;;;;;;;;;;;13.40;100.00;101710.38;5024277;28;19927;-47
2023/05/05 11:42:24;;;;;;;;;;;;;;;13.27;100.00;101726.31;5021986;28;20379;-44
2023/05/05 11:44:50;;;;;;;;;;;;;;;13.28;100.00;101720.31;5024078;28;19917;-46
2023/05/05 11:47:15;;;;;;;;;;;;;;;13.24;100.00;101715.03;5024300;28;19936;-44
2023/05/05 11:49:40;;;;;;;;;;;;;;;13.21;100.00;101715.81;5026755;28;19970;-48
2023/05/05 11:52:07;;;;;;;;;;;;;;;13.21;100.00;101723.56;5026287;28;19925;-46
2023/05/05 11:54:33;;;;;;;;;;;;;;;13.23;100.00;101701.25;5023103;28;19925;-47
2023/05/05 11:57:04;;;;;;;;;;;;;;;13.33;100.00;101704.97;5030451;28;20268;-47
2023/05/05 11:59:32;;;;;;;;;;;;;;;13.46;100.00;101706.22;5026247;28;19925;-46
2023/05/05 12:01:58;;;;;;;;;;;;;;;13.58;100.00;101697.09;5026830;28;20688;-47
2023/05/05 12:04:23;;;;;;;;;;;;;;;13.79;100.00;101699.44;5020514;28;20397;-46
2023/05/05 12:06:49;;;;;;;;;;;;;;;13.95;99.89;101691.28;5024708;28;20477;-50
2023/05/05 12:09:15;;;;;;;;;;;;;;;14.06;96.64;101690.69;5025180;28;19925;-44
2023/05/05 12:11:50;;;;;;;;;;;;;;;14.11;100.00;101702.03;5024544;28;20157;-46
2023/05/05 12:14:15;;;;;;;;;;;;;;;14.07;95.98;101700.19;5026432;28;19921;-48
2023/05/05 12:16:40;;;;;;;;;;;;;;;13.98;99.32;101708.59;5025564;28;19936;-48
2023/05/05 12:19:06;;;;;;;;;;;;;;;13.86;100.00;101688.44;5021747;28;20302;-47
2023/05/05 12:21:32;;;;;;;;;;;;;;;13.79;99.69;101691.69;5024566;28;19925;-46
2023/05/05 12:23:58;;;;;;;;;;;;;;;13.72;100.00;101689.78;5026353;28;19929;-49
2023/05/05 12:26:27;;;;;;;;;;;;;;;13.67;100.00;101687.06;5025367;28;19993;-48
2023/05/05 12:28:53;;;;;;;;;;;;;;;13.64;100.00;101683.50;5021738;28;19969;-47
2023/05/05 12:31:18;;;;;;;;;;;;;;;13.62;100.00;101698.09;5024712;28;19982;-49
2023/05/05 12:33:44;;;;;;;;;;;;;;;13.65;100.00;101683.56;5023426;28;20008;-49
2023/05/05 12:36:09;;;;;;;;;;;;;;;13.72;100.00;101689.78;5028890;28;19921;-47